createdAt,value
2023-04-26T00:00:30.829Z,1011.25
2023-04-26T00:01:31.075Z,1011.25
2023-04-26T00:02:30.880Z,1011.26
2023-04-26T00:03:30.935Z,1011.25
2023-04-26T00:04:30.998Z,1011.25
2023-04-26T00:05:30.787Z,1011.25
2023-04-26T00:06:30.725Z,1011.25
2023-04-26T00:07:30.752Z,1011.26
2023-04-26T00:08:30.701Z,1011.26
2023-04-26T00:09:30.721Z,1011.27
2023-04-26T00:10:30.678Z,1011.27
2023-04-26T00:11:30.693Z,1011.27
2023-04-26T00:12:30.667Z,1011.27
2023-04-26T00:13:30.689Z,1011.28
2023-04-26T00:14:30.670Z,1011.29
2023-04-26T00:15:30.661Z,1011.30
2023-04-26T00:16:30.657Z,1011.30
2023-04-26T00:17:30.675Z,1011.31
2023-04-26T00:18:30.614Z,1011.30
2023-04-26T00:19:30.635Z,1011.30
2023-04-26T00:20:30.587Z,1011.30
2023-04-26T00:21:30.587Z,1011.30
2023-04-26T00:22:30.548Z,1011.31
2023-04-26T00:23:30.570Z,1011.32
2023-04-26T00:24:30.529Z,1011.33
2023-04-26T00:25:30.725Z,1011.34
2023-04-26T00:26:30.525Z,1011.33
2023-04-26T00:27:30.530Z,1011.34
2023-04-26T00:28:30.485Z,1011.35
2023-04-26T00:29:30.515Z,1011.36
2023-04-26T00:30:30.462Z,1011.37
2023-04-26T00:31:30.547Z,1011.37
2023-04-26T00:32:30.527Z,1011.37
2023-04-26T00:33:30.480Z,1011.38
2023-04-26T00:34:30.428Z,1011.38
2023-04-26T00:35:30.448Z,1011.38
2023-04-26T00:36:30.403Z,1011.39
2023-04-26T00:37:30.443Z,1011.38
2023-04-26T00:38:30.413Z,1011.39
2023-04-26T00:39:30.640Z,1011.38
2023-04-26T00:40:30.377Z,1011.38
2023-04-26T00:41:30.385Z,1011.38
2023-04-26T00:42:30.353Z,1011.37
2023-04-26T00:43:30.602Z,1011.36
2023-04-26T00:44:30.335Z,1011.34
2023-04-26T00:45:30.414Z,1011.32
2023-04-26T00:46:30.315Z,1011.31
2023-04-26T00:47:30.346Z,1011.32
2023-04-26T00:48:30.285Z,1011.31
2023-04-26T00:49:30.321Z,1011.32
2023-04-26T00:50:30.273Z,1011.32
2023-04-26T00:51:30.290Z,1011.31
2023-04-26T00:52:30.245Z,1011.30
2023-04-26T00:53:30.254Z,1011.28
2023-04-26T00:54:30.288Z,1011.28
2023-04-26T00:55:30.290Z,1011.27
2023-04-26T00:56:30.230Z,1011.26
2023-04-26T00:57:30.197Z,1011.25
2023-04-26T00:58:30.209Z,1011.24
2023-04-26T00:59:30.179Z,1011.24
2023-04-26T01:00:30.193Z,1011.24
2023-04-26T01:01:30.215Z,1011.24
2023-04-26T01:02:30.278Z,1011.23
2023-04-26T01:03:30.304Z,1011.24
2023-04-26T01:04:30.186Z,1011.24
2023-04-26T01:05:30.132Z,1011.26
2023-04-26T01:06:30.130Z,1011.27
2023-04-26T01:07:30.123Z,1011.27
2023-04-26T01:08:30.107Z,1011.27
2023-04-26T01:09:30.083Z,1011.27
2023-04-26T01:10:30.095Z,1011.27
2023-04-26T01:11:30.062Z,1011.27
2023-04-26T01:12:30.077Z,1011.27
2023-04-26T01:13:30.064Z,1011.28
2023-04-26T01:14:30.062Z,1011.28
2023-04-26T01:15:30.006Z,1011.28
2023-04-26T01:16:30.073Z,1011.27
2023-04-26T01:17:30.022Z,1011.25
2023-04-26T01:18:30.007Z,1011.26
2023-04-26T01:19:29.984Z,1011.26
2023-04-26T01:20:30.025Z,1011.26
2023-04-26T01:21:29.954Z,1011.26
2023-04-26T01:22:29.972Z,1011.26
2023-04-26T01:23:29.947Z,1011.27
2023-04-26T01:24:29.937Z,1011.27
2023-04-26T01:25:29.951Z,1011.27
2023-04-26T01:26:29.924Z,1011.28
2023-04-26T01:27:29.892Z,1011.30
2023-04-26T01:28:29.945Z,1011.29
2023-04-26T01:29:29.868Z,1011.30
2023-04-26T01:30:29.883Z,1011.31
2023-04-26T01:31:29.940Z,1011.30
2023-04-26T01:32:29.898Z,1011.29
2023-04-26T01:33:29.838Z,1011.28
2023-04-26T01:34:29.851Z,1011.27
2023-04-26T01:35:29.808Z,1011.27
2023-04-26T01:36:29.822Z,1011.27
2023-04-26T01:37:29.808Z,1011.28
2023-04-26T01:38:29.801Z,1011.28
2023-04-26T01:39:29.771Z,1011.28
2023-04-26T01:40:29.781Z,1011.28
2023-04-26T01:41:29.755Z,1011.28
2023-04-26T01:42:29.759Z,1011.28
2023-04-26T01:43:29.746Z,1011.29
2023-04-26T01:44:29.748Z,1011.29
2023-04-26T01:45:29.713Z,1011.29
2023-04-26T01:46:29.760Z,1011.29
2023-04-26T01:47:29.706Z,1011.28
2023-04-26T01:48:29.712Z,1011.27
2023-04-26T01:49:29.686Z,1011.26
2023-04-26T01:50:29.818Z,1011.26
2023-04-26T01:51:29.668Z,1011.25
2023-04-26T01:52:29.652Z,1011.25
2023-04-26T01:53:29.627Z,1011.26
2023-04-26T01:54:29.655Z,1011.27
2023-04-26T01:55:29.630Z,1011.27
2023-04-26T01:56:29.624Z,1011.27
2023-04-26T01:57:29.582Z,1011.27
2023-04-26T01:58:29.604Z,1011.27
2023-04-26T01:59:29.565Z,1011.27
2023-04-26T02:00:29.578Z,1011.26
2023-04-26T02:01:29.613Z,1011.26
2023-04-26T02:02:29.609Z,1011.27
2023-04-26T02:03:29.562Z,1011.27
2023-04-26T02:04:29.617Z,1011.28
2023-04-26T02:05:29.606Z,1011.28
2023-04-26T02:06:29.530Z,1011.27
2023-04-26T02:07:29.508Z,1011.26
2023-04-26T02:08:29.492Z,1011.26
2023-04-26T02:09:29.476Z,1011.26
2023-04-26T02:10:29.484Z,1011.25
2023-04-26T02:11:29.449Z,1011.26
2023-04-26T02:12:29.480Z,1011.27
2023-04-26T02:13:29.447Z,1011.27
2023-04-26T02:14:29.457Z,1011.28
2023-04-26T02:15:29.417Z,1011.29
2023-04-26T02:16:29.545Z,1011.30
2023-04-26T02:17:29.423Z,1011.31
2023-04-26T02:18:29.396Z,1011.31
2023-04-26T02:19:29.385Z,1011.31
2023-04-26T02:20:29.382Z,1011.32
2023-04-26T02:21:29.342Z,1011.32
2023-04-26T02:22:29.362Z,1011.32
2023-04-26T02:23:29.326Z,1011.32
2023-04-26T02:24:29.348Z,1011.33
2023-04-26T02:25:29.342Z,1011.33
2023-04-26T02:26:29.324Z,1011.33
2023-04-26T02:27:29.279Z,1011.34
2023-04-26T02:28:29.294Z,1011.34
2023-04-26T02:29:43.123Z,1011.35
2023-04-26T02:30:29.281Z,1011.35
2023-04-26T02:31:29.291Z,1011.37
2023-04-26T02:32:29.275Z,1011.36
2023-04-26T02:33:29.227Z,1011.34
2023-04-26T02:34:29.240Z,1011.33
2023-04-26T02:35:29.229Z,1011.33
2023-04-26T02:36:29.217Z,1011.34
2023-04-26T02:37:29.218Z,1011.34
2023-04-26T02:38:29.198Z,1011.36
2023-04-26T02:39:29.168Z,1011.36
2023-04-26T02:40:29.176Z,1011.36
2023-04-26T02:41:29.166Z,1011.37
2023-04-26T02:42:29.157Z,1011.38
2023-04-26T02:43:29.193Z,1011.38
2023-04-26T02:44:29.148Z,1011.37
2023-04-26T02:45:29.126Z,1011.36
2023-04-26T02:46:29.138Z,1011.36
2023-04-26T02:47:29.105Z,1011.36
2023-04-26T02:48:29.154Z,1011.36
2023-04-26T02:49:29.072Z,1011.36
2023-04-26T02:50:29.084Z,1011.36
2023-04-26T02:51:29.048Z,1011.35
2023-04-26T02:52:29.064Z,1011.35
2023-04-26T02:53:29.037Z,1011.35
2023-04-26T02:54:29.032Z,1011.35
2023-04-26T02:55:29.017Z,1011.36
2023-04-26T02:56:29.009Z,1011.37
2023-04-26T02:57:28.981Z,1011.37
2023-04-26T02:58:29.006Z,1011.37
2023-04-26T02:59:28.961Z,1011.38
2023-04-26T03:00:28.982Z,1011.38
2023-04-26T03:01:29.031Z,1011.38
2023-04-26T03:02:29.094Z,1011.38
2023-04-26T03:03:29.101Z,1011.37
2023-04-26T03:04:28.933Z,1011.36
2023-04-26T03:05:28.904Z,1011.34
2023-04-26T03:06:28.916Z,1011.33
2023-04-26T03:07:28.903Z,1011.31
2023-04-26T03:08:28.904Z,1011.31
2023-04-26T03:09:28.855Z,1011.29
2023-04-26T03:10:28.869Z,1011.28
2023-04-26T03:11:28.848Z,1011.28
2023-04-26T03:12:28.847Z,1011.27
2023-04-26T03:13:28.852Z,1011.27
2023-04-26T03:14:28.836Z,1011.27
2023-04-26T03:15:28.795Z,1011.28
2023-04-26T03:16:28.919Z,1011.28
2023-04-26T03:17:28.794Z,1011.28
2023-04-26T03:18:28.854Z,1011.29
2023-04-26T03:19:28.775Z,1011.30
2023-04-26T03:20:28.772Z,1011.31
2023-04-26T03:21:28.737Z,1011.32
2023-04-26T03:22:28.762Z,1011.31
2023-04-26T03:23:28.751Z,1011.31
2023-04-26T03:24:28.740Z,1011.30
2023-04-26T03:25:28.719Z,1011.29
2023-04-26T03:26:28.754Z,1011.28
2023-04-26T03:27:28.684Z,1011.27
2023-04-26T03:28:28.702Z,1011.25
2023-04-26T03:29:28.692Z,1011.24
2023-04-26T03:30:28.683Z,1011.24
2023-04-26T03:31:28.700Z,1011.23
2023-04-26T03:32:28.685Z,1011.24
2023-04-26T03:33:28.625Z,1011.24
2023-04-26T03:34:28.679Z,1011.24
2023-04-26T03:35:28.619Z,1011.24
2023-04-26T03:36:28.634Z,1011.23
2023-04-26T03:37:28.605Z,1011.22
2023-04-26T03:38:28.592Z,1011.20
2023-04-26T03:39:28.576Z,1011.19
2023-04-26T03:40:28.570Z,1011.20
2023-04-26T03:41:28.547Z,1011.20
2023-04-26T03:42:28.556Z,1011.21
2023-04-26T03:43:28.562Z,1011.22
2023-04-26T03:44:30.495Z,1011.23
2023-04-26T03:45:28.497Z,1011.23
2023-04-26T03:46:28.538Z,1011.24
2023-04-26T03:47:28.530Z,1011.24
2023-04-26T03:48:28.500Z,1011.24
2023-04-26T03:49:28.482Z,1011.24
2023-04-26T03:50:28.487Z,1011.23
2023-04-26T03:51:28.445Z,1011.23
2023-04-26T03:52:28.458Z,1011.23
2023-04-26T03:53:28.434Z,1011.22
2023-04-26T03:54:28.434Z,1011.21
2023-04-26T03:55:28.445Z,1011.19
2023-04-26T03:56:28.445Z,1011.18
2023-04-26T03:57:28.389Z,1011.17
2023-04-26T03:58:28.423Z,1011.18
2023-04-26T03:59:28.371Z,1011.18
2023-04-26T04:00:28.378Z,1011.18
2023-04-26T04:01:28.355Z,1011.17
2023-04-26T04:02:28.446Z,1011.16
2023-04-26T04:03:28.519Z,1011.17
2023-04-26T04:04:28.506Z,1011.18
2023-04-26T04:05:28.428Z,1011.18
2023-04-26T04:06:28.321Z,1011.18
2023-04-26T04:07:28.303Z,1011.18
2023-04-26T04:08:28.295Z,1011.18
2023-04-26T04:09:28.254Z,1011.17
2023-04-26T04:10:28.271Z,1011.17
2023-04-26T04:11:28.272Z,1011.18
2023-04-26T04:12:28.251Z,1011.19
2023-04-26T04:13:28.252Z,1011.19
2023-04-26T04:14:28.223Z,1011.18
2023-04-26T04:15:28.210Z,1011.17
2023-04-26T04:16:28.296Z,1011.17
2023-04-26T04:17:28.409Z,1011.17
2023-04-26T04:18:28.220Z,1011.18
2023-04-26T04:19:28.183Z,1011.19
2023-04-26T04:20:28.189Z,1011.19
2023-04-26T04:21:28.137Z,1011.20
2023-04-26T04:22:28.184Z,1011.21
2023-04-26T04:23:28.138Z,1011.22
2023-04-26T04:24:28.138Z,1011.22
2023-04-26T04:25:28.129Z,1011.23
2023-04-26T04:26:28.110Z,1011.24
2023-04-26T04:27:28.090Z,1011.25
2023-04-26T04:28:28.090Z,1011.25
2023-04-26T04:29:28.080Z,1011.24
2023-04-26T04:30:28.083Z,1011.23
2023-04-26T04:31:28.108Z,1011.23
2023-04-26T04:32:28.078Z,1011.22
2023-04-26T04:33:28.006Z,1011.21
2023-04-26T04:34:28.016Z,1011.21
2023-04-26T04:35:27.990Z,1011.21
2023-04-26T04:36:28.048Z,1011.22
2023-04-26T04:37:27.994Z,1011.24
2023-04-26T04:38:27.983Z,1011.25
2023-04-26T04:39:27.972Z,1011.27
2023-04-26T04:40:27.966Z,1011.28
2023-04-26T04:41:27.967Z,1011.29
2023-04-26T04:42:27.953Z,1011.31
2023-04-26T04:43:27.951Z,1011.31
2023-04-26T04:44:27.936Z,1011.31
2023-04-26T04:45:27.899Z,1011.31
2023-04-26T04:46:27.970Z,1011.32
2023-04-26T04:47:27.907Z,1011.32
2023-04-26T04:48:27.892Z,1011.32
2023-04-26T04:49:27.905Z,1011.33
2023-04-26T04:50:27.862Z,1011.33
2023-04-26T04:51:27.842Z,1011.33
2023-04-26T04:52:27.841Z,1011.34
2023-04-26T04:53:27.823Z,1011.36
2023-04-26T04:54:27.841Z,1011.38
2023-04-26T04:55:27.819Z,1011.38
2023-04-26T04:56:27.811Z,1011.39
2023-04-26T04:57:27.770Z,1011.39
2023-04-26T04:58:27.827Z,1011.40
2023-04-26T04:59:28.168Z,1011.41
2023-04-26T05:00:27.765Z,1011.42
2023-04-26T05:01:27.810Z,1011.43
2023-04-26T05:02:28.009Z,1011.43
2023-04-26T05:03:27.803Z,1011.42
2023-04-26T05:04:27.955Z,1011.42
2023-04-26T05:05:27.696Z,1011.42
2023-04-26T05:06:27.742Z,1011.42
2023-04-26T05:07:29.083Z,1011.42
2023-04-26T05:08:27.682Z,1011.43
2023-04-26T05:09:27.652Z,1011.44
2023-04-26T05:10:27.661Z,1011.45
2023-04-26T05:11:27.665Z,1011.45
2023-04-26T05:12:27.653Z,1011.46
2023-04-26T05:13:27.658Z,1011.46
2023-04-26T05:14:27.612Z,1011.46
2023-04-26T05:15:27.620Z,1011.46
2023-04-26T05:16:27.615Z,1011.46
2023-04-26T05:17:27.604Z,1011.46
2023-04-26T05:18:27.592Z,1011.46
2023-04-26T05:19:27.604Z,1011.47
2023-04-26T05:20:27.550Z,1011.48
2023-04-26T05:21:27.554Z,1011.48
2023-04-26T05:22:27.520Z,1011.49
2023-04-26T05:23:27.554Z,1011.50
2023-04-26T05:24:27.505Z,1011.51
2023-04-26T05:25:27.562Z,1011.53
2023-04-26T05:26:27.507Z,1011.54
2023-04-26T05:27:27.497Z,1011.55
2023-04-26T05:28:27.457Z,1011.55
2023-04-26T05:29:27.483Z,1011.55
2023-04-26T05:30:27.441Z,1011.54
2023-04-26T05:31:27.482Z,1011.54
2023-04-26T05:32:27.465Z,1011.55
2023-04-26T05:33:27.438Z,1011.55
2023-04-26T05:34:27.419Z,1011.56
2023-04-26T05:35:27.416Z,1011.58
2023-04-26T05:36:29.642Z,1011.60
2023-04-26T05:37:27.415Z,1011.61
2023-04-26T05:38:27.363Z,1011.62
2023-04-26T05:39:27.369Z,1011.62
2023-04-26T05:40:27.386Z,1011.62
2023-04-26T05:41:27.388Z,1011.63
2023-04-26T05:42:27.334Z,1011.64
2023-04-26T05:43:27.358Z,1011.65
2023-04-26T05:44:27.357Z,1011.65
2023-04-26T05:45:27.360Z,1011.67
2023-04-26T05:46:27.365Z,1011.67
2023-04-26T05:47:27.342Z,1011.68
2023-04-26T05:48:27.282Z,1011.70
2023-04-26T05:49:27.305Z,1011.70
2023-04-26T05:50:27.242Z,1011.71
2023-04-26T05:51:27.257Z,1011.71
2023-04-26T05:52:27.232Z,1011.71
2023-04-26T05:53:27.234Z,1011.71
2023-04-26T05:54:27.195Z,1011.71
2023-04-26T05:55:27.247Z,1011.70
2023-04-26T05:56:27.178Z,1011.71
2023-04-26T05:57:27.270Z,1011.74
2023-04-26T05:58:27.157Z,1011.75
2023-04-26T05:59:27.170Z,1011.77
2023-04-26T06:00:27.137Z,1011.78
2023-04-26T06:01:27.163Z,1011.78
2023-04-26T06:02:27.207Z,1011.80
2023-04-26T06:03:27.307Z,1011.81
2023-04-26T06:04:27.521Z,1011.82
2023-04-26T06:05:27.313Z,1011.84
2023-04-26T06:06:27.070Z,1011.88
2023-04-26T06:07:27.106Z,1011.87
2023-04-26T06:08:27.047Z,1011.89
2023-04-26T06:09:27.072Z,1011.89
2023-04-26T06:10:27.039Z,1011.89
2023-04-26T06:11:27.081Z,1011.89
2023-04-26T06:12:27.019Z,1011.90
2023-04-26T06:13:27.037Z,1011.91
2023-04-26T06:14:30.726Z,1011.91
2023-04-26T06:15:26.995Z,1011.92
2023-04-26T06:16:26.997Z,1011.93
2023-04-26T06:17:27.056Z,1011.93
2023-04-26T06:18:26.961Z,1011.93
2023-04-26T06:19:26.993Z,1011.93
2023-04-26T06:20:26.928Z,1011.93
2023-04-26T06:21:26.953Z,1011.93
2023-04-26T06:22:26.909Z,1011.92
2023-04-26T06:23:26.917Z,1011.92
2023-04-26T06:24:26.900Z,1011.93
2023-04-26T06:25:26.939Z,1011.93
2023-04-26T06:26:26.869Z,1011.94
2023-04-26T06:27:26.873Z,1011.96
2023-04-26T06:28:26.855Z,1011.97
2023-04-26T06:29:26.874Z,1011.97
2023-04-26T06:30:26.867Z,1011.98
2023-04-26T06:31:26.896Z,1011.97
2023-04-26T06:32:26.865Z,1011.97
2023-04-26T06:33:26.818Z,1011.92
2023-04-26T06:34:26.786Z,1011.94
2023-04-26T06:35:26.788Z,1011.94
2023-04-26T06:36:26.772Z,1011.97
2023-04-26T06:37:26.803Z,1011.97
2023-04-26T06:38:26.847Z,1011.95
2023-04-26T06:39:26.762Z,1011.95
2023-04-26T06:40:26.720Z,1011.94
2023-04-26T06:41:26.730Z,1011.94
2023-04-26T06:42:26.701Z,1011.96
2023-04-26T06:43:26.776Z,1011.95
2023-04-26T06:44:26.677Z,1011.97
2023-04-26T06:45:26.724Z,1011.97
2023-04-26T06:46:26.765Z,1011.98
2023-04-26T06:47:26.709Z,1011.99
2023-04-26T06:48:26.652Z,1012.01
2023-04-26T06:49:26.997Z,1012.00
2023-04-26T06:50:26.666Z,1012.04
2023-04-26T06:51:26.870Z,1012.04
2023-04-26T06:52:26.599Z,1012.03
2023-04-26T06:53:26.620Z,1012.03
2023-04-26T06:54:26.579Z,1012.04
2023-04-26T06:55:26.609Z,1012.03
2023-04-26T06:56:26.561Z,1012.01
2023-04-26T06:57:26.589Z,1012.01
2023-04-26T06:58:26.546Z,1012.03
2023-04-26T06:59:26.551Z,1012.01
2023-04-26T07:00:26.551Z,1012.03
2023-04-26T07:01:26.827Z,1012.04
2023-04-26T07:02:26.633Z,1012.03
2023-04-26T07:03:26.655Z,1012.02
2023-04-26T07:04:26.611Z,1012.03
2023-04-26T07:05:26.491Z,1012.05
2023-04-26T07:06:26.501Z,1012.08
2023-04-26T07:07:26.513Z,1012.06
2023-04-26T07:08:26.480Z,1012.07
2023-04-26T07:09:26.442Z,1012.08
2023-04-26T07:10:26.540Z,1012.06
2023-04-26T07:11:26.496Z,1012.08
2023-04-26T07:12:26.457Z,1012.08
2023-04-26T07:13:26.437Z,1012.09
2023-04-26T07:14:26.370Z,1012.10
2023-04-26T07:15:26.375Z,1012.10
2023-04-26T07:16:26.404Z,1012.10
2023-04-26T07:17:26.367Z,1012.09
2023-04-26T07:18:26.329Z,1012.08
2023-04-26T07:19:26.360Z,1012.09
2023-04-26T07:20:26.339Z,1012.08
2023-04-26T07:21:26.317Z,1012.08
2023-04-26T07:22:26.279Z,1012.06
2023-04-26T07:23:26.308Z,1012.07
2023-04-26T07:24:26.261Z,1012.09
2023-04-26T07:25:26.303Z,1012.09
2023-04-26T07:26:26.642Z,1012.09
2023-04-26T07:27:26.249Z,1012.09
2023-04-26T07:28:26.232Z,1012.09
2023-04-26T07:29:26.270Z,1012.08
2023-04-26T07:30:26.331Z,1012.09
2023-04-26T07:31:26.238Z,1012.08
2023-04-26T07:32:26.336Z,1012.07
2023-04-26T07:33:26.367Z,1012.03
2023-04-26T07:34:26.162Z,1012.01
2023-04-26T07:35:26.189Z,1011.96
2023-04-26T07:36:26.160Z,1011.96
2023-04-26T07:37:26.172Z,1011.96
2023-04-26T07:38:26.121Z,1011.95
2023-04-26T07:39:26.136Z,1011.94
2023-04-26T07:40:26.223Z,1011.93
2023-04-26T07:41:26.121Z,1011.92
2023-04-26T07:42:26.076Z,1011.93
2023-04-26T07:43:26.107Z,1011.92
2023-04-26T07:44:26.063Z,1011.93
2023-04-26T07:45:26.126Z,1011.91
2023-04-26T07:46:26.196Z,1011.91
2023-04-26T07:47:26.107Z,1011.89
2023-04-26T07:48:26.048Z,1011.90
2023-04-26T07:49:26.046Z,1011.88
2023-04-26T07:50:25.993Z,1011.89
2023-04-26T07:51:26.002Z,1011.86
2023-04-26T07:52:26.017Z,1011.83
2023-04-26T07:53:25.972Z,1011.87
2023-04-26T07:54:25.951Z,1011.88
2023-04-26T07:55:26.004Z,1011.82
2023-04-26T07:56:25.932Z,1011.84
2023-04-26T07:57:25.938Z,1011.84
2023-04-26T07:58:25.912Z,1011.82
2023-04-26T07:59:25.922Z,1011.81
2023-04-26T08:00:25.882Z,1011.78
2023-04-26T08:01:25.920Z,1011.76
2023-04-26T08:02:36.802Z,1011.75
2023-04-26T08:03:26.008Z,1011.74
2023-04-26T08:04:26.050Z,1011.73
2023-04-26T08:05:26.075Z,1011.77
2023-04-26T08:06:26.048Z,1011.78
2023-04-26T08:07:25.861Z,1011.80
2023-04-26T08:08:25.802Z,1011.82
2023-04-26T08:09:25.814Z,1011.82
2023-04-26T08:10:25.796Z,1011.77
2023-04-26T08:11:25.837Z,1011.76
2023-04-26T08:12:25.782Z,1011.72
2023-04-26T08:13:28.601Z,1011.69
2023-04-26T08:14:25.757Z,1011.70
2023-04-26T08:15:25.764Z,1011.72
2023-04-26T08:16:25.768Z,1011.75
2023-04-26T08:17:25.816Z,1011.77
2023-04-26T08:18:25.693Z,1011.77
2023-04-26T08:19:25.725Z,1011.80
2023-04-26T08:20:25.672Z,1011.82
2023-04-26T08:21:25.676Z,1011.82
2023-04-26T08:22:25.647Z,1011.85
2023-04-26T08:23:25.666Z,1011.85
2023-04-26T08:24:25.636Z,1011.85
2023-04-26T08:25:25.655Z,1011.85
2023-04-26T08:26:25.601Z,1011.84
2023-04-26T08:27:25.634Z,1011.85
2023-04-26T08:28:25.586Z,1011.84
2023-04-26T08:29:25.598Z,1011.86
2023-04-26T08:30:25.560Z,1011.87
2023-04-26T08:31:25.666Z,1011.88
2023-04-26T08:32:25.617Z,1011.88
2023-04-26T08:33:25.552Z,1011.88
2023-04-26T08:34:25.520Z,1011.90
2023-04-26T08:35:25.540Z,1011.91
2023-04-26T08:36:25.507Z,1011.92
2023-04-26T08:37:26.498Z,1011.92
2023-04-26T08:38:25.481Z,1011.93
2023-04-26T08:39:25.496Z,1011.92
2023-04-26T08:40:25.517Z,1011.92
2023-04-26T08:41:25.467Z,1011.92
2023-04-26T08:42:25.467Z,1011.92
2023-04-26T08:43:25.472Z,1011.91
2023-04-26T08:44:25.455Z,1011.93
2023-04-26T08:45:25.435Z,1011.92
2023-04-26T08:46:25.501Z,1011.93
2023-04-26T08:47:25.460Z,1011.90
2023-04-26T08:48:25.377Z,1011.86
2023-04-26T08:49:25.418Z,1011.80
2023-04-26T08:50:25.359Z,1011.72
2023-04-26T08:51:25.382Z,1011.65
2023-04-26T08:52:25.338Z,1011.62
2023-04-26T08:53:25.387Z,1011.60
2023-04-26T08:54:25.338Z,1011.58
2023-04-26T08:55:25.356Z,1011.55
2023-04-26T08:56:25.292Z,1011.54
2023-04-26T08:57:25.303Z,1011.56
2023-04-26T08:58:25.284Z,1011.66
2023-04-26T08:59:25.296Z,1011.70
2023-04-26T09:00:25.255Z,1011.73
2023-04-26T09:01:25.389Z,1011.75
2023-04-26T09:02:25.417Z,1011.79
2023-04-26T09:03:25.434Z,1011.81
2023-04-26T09:04:25.489Z,1011.84
2023-04-26T09:05:25.225Z,1011.85
2023-04-26T09:06:25.190Z,1011.85
2023-04-26T09:07:25.217Z,1011.87
2023-04-26T09:08:25.197Z,1011.89
2023-04-26T09:09:25.728Z,1011.89
2023-04-26T09:10:25.158Z,1011.89
2023-04-26T09:11:25.182Z,1011.90
2023-04-26T09:12:25.127Z,1011.90
2023-04-26T09:13:25.165Z,1011.91
2023-04-26T09:14:25.118Z,1011.91
2023-04-26T09:15:25.130Z,1011.91
2023-04-26T09:16:25.111Z,1011.92
2023-04-26T09:17:25.165Z,1011.91
2023-04-26T09:18:25.077Z,1011.92
2023-04-26T09:19:25.090Z,1011.92
2023-04-26T09:20:25.053Z,1011.91
2023-04-26T09:21:25.069Z,1011.89
2023-04-26T09:22:25.018Z,1011.84
2023-04-26T09:23:25.057Z,1011.81
2023-04-26T09:24:25.000Z,1011.78
2023-04-26T09:25:25.029Z,1011.81
2023-04-26T09:26:24.979Z,1011.82
2023-04-26T09:27:24.961Z,1011.84
2023-04-26T09:28:24.985Z,1011.85
2023-04-26T09:29:24.944Z,1011.88
2023-04-26T09:30:24.956Z,1011.90
2023-04-26T09:31:24.984Z,1011.90
2023-04-26T09:32:24.941Z,1011.92
2023-04-26T09:33:24.938Z,1011.92
2023-04-26T09:34:24.929Z,1011.93
2023-04-26T09:35:24.884Z,1011.96
2023-04-26T09:36:24.898Z,1011.97
2023-04-26T09:37:24.883Z,1012.00
2023-04-26T09:38:24.882Z,1012.00
2023-04-26T09:39:24.836Z,1012.02
2023-04-26T09:40:24.869Z,1012.02
2023-04-26T09:41:24.842Z,1012.02
2023-04-26T09:42:24.830Z,1012.01
2023-04-26T09:43:24.841Z,1012.04
2023-04-26T09:44:24.815Z,1012.05
2023-04-26T09:45:24.802Z,1012.05
2023-04-26T09:46:24.878Z,1012.05
2023-04-26T09:47:24.785Z,1012.05
2023-04-26T09:48:24.790Z,1012.06
2023-04-26T09:49:24.765Z,1012.03
2023-04-26T09:50:24.745Z,1012.01
2023-04-26T09:51:24.720Z,1012.06
2023-04-26T09:52:24.734Z,1012.03
2023-04-26T09:53:24.690Z,1012.05
2023-04-26T09:54:24.740Z,1012.03
2023-04-26T09:55:34.156Z,1012.04
2023-04-26T09:56:24.712Z,1012.05
2023-04-26T09:57:24.661Z,1012.06
2023-04-26T09:58:24.672Z,1012.03
2023-04-26T09:59:24.632Z,1012.03
2023-04-26T10:00:24.643Z,1012.01
2023-04-26T10:01:24.724Z,1012.02
2023-04-26T10:02:24.703Z,1012.00
2023-04-26T10:03:24.858Z,1012.01
2023-04-26T10:04:24.710Z,1011.99
2023-04-26T10:05:24.590Z,1011.99
2023-04-26T10:06:24.604Z,1011.95
2023-04-26T10:07:24.571Z,1011.94
2023-04-26T10:08:24.556Z,1011.93
2023-04-26T10:09:24.520Z,1011.92
2023-04-26T10:10:24.571Z,1011.91
2023-04-26T10:11:24.506Z,1011.91
2023-04-26T10:12:24.520Z,1011.90
2023-04-26T10:13:24.573Z,1011.90
2023-04-26T10:14:24.502Z,1011.88
2023-04-26T10:15:24.465Z,1011.88
2023-04-26T10:16:24.543Z,1011.87
2023-04-26T10:17:24.471Z,1011.85
2023-04-26T10:18:24.481Z,1011.83
2023-04-26T10:19:24.457Z,1011.83
2023-04-26T10:20:24.432Z,1011.81
2023-04-26T10:21:24.392Z,1011.81
2023-04-26T10:22:24.417Z,1011.82
2023-04-26T10:23:24.468Z,1011.79
2023-04-26T10:24:24.391Z,1011.78
2023-04-26T10:25:24.376Z,1011.79
2023-04-26T10:26:24.377Z,1011.79
2023-04-26T10:27:24.352Z,1011.77
2023-04-26T10:28:24.350Z,1011.77
2023-04-26T10:29:24.355Z,1011.76
2023-04-26T10:30:24.320Z,1011.76
2023-04-26T10:31:24.333Z,1011.75
2023-04-26T10:32:24.326Z,1011.76
2023-04-26T10:33:24.299Z,1011.78
2023-04-26T10:34:24.294Z,1011.79
2023-04-26T10:35:24.254Z,1011.78
2023-04-26T10:36:24.270Z,1011.78
2023-04-26T10:37:24.261Z,1011.79
2023-04-26T10:38:24.265Z,1011.79
2023-04-26T10:39:24.224Z,1011.80
2023-04-26T10:40:24.238Z,1011.79
2023-04-26T10:41:24.192Z,1011.79
2023-04-26T10:42:25.679Z,1011.80
2023-04-26T10:43:24.409Z,1011.79
2023-04-26T10:44:24.190Z,1011.78
2023-04-26T10:45:24.168Z,1011.78
2023-04-26T10:46:24.244Z,1011.77
2023-04-26T10:47:24.170Z,1011.77
2023-04-26T10:48:24.159Z,1011.77
2023-04-26T10:49:26.429Z,1011.76
2023-04-26T10:50:24.118Z,1011.76
2023-04-26T10:51:24.127Z,1011.75
2023-04-26T10:52:24.106Z,1011.74
2023-04-26T10:53:24.068Z,1011.74
2023-04-26T10:54:24.090Z,1011.72
2023-04-26T10:55:25.449Z,1011.71
2023-04-26T10:56:24.147Z,1011.68
2023-04-26T10:57:24.049Z,1011.60
2023-04-26T10:58:24.038Z,1011.54
2023-04-26T10:59:36.797Z,1011.55
2023-04-26T11:00:24.034Z,1011.56
2023-04-26T11:01:24.013Z,1011.55
2023-04-26T11:02:24.106Z,1011.54
2023-04-26T11:03:24.221Z,1011.55
2023-04-26T11:04:24.087Z,1011.56
2023-04-26T11:05:25.475Z,1011.55
2023-04-26T11:06:23.954Z,1011.55
2023-04-26T11:07:23.964Z,1011.56
2023-04-26T11:08:23.944Z,1011.56
2023-04-26T11:09:23.899Z,1011.56
2023-04-26T11:10:23.923Z,1011.57
2023-04-26T11:11:23.923Z,1011.58
2023-04-26T11:12:23.930Z,1011.59
2023-04-26T11:13:23.943Z,1011.59
2023-04-26T11:14:23.867Z,1011.59
2023-04-26T11:15:23.862Z,1011.58
2023-04-26T11:16:23.875Z,1011.59
2023-04-26T11:17:23.863Z,1011.60
2023-04-26T11:18:23.864Z,1011.62
2023-04-26T11:19:23.821Z,1011.63
2023-04-26T11:20:23.812Z,1011.66
2023-04-26T11:21:23.784Z,1011.67
2023-04-26T11:22:23.798Z,1011.66
2023-04-26T11:23:23.777Z,1011.64
2023-04-26T11:24:23.769Z,1011.62
2023-04-26T11:25:23.772Z,1011.61
2023-04-26T11:26:23.760Z,1011.63
2023-04-26T11:27:23.712Z,1011.62
2023-04-26T11:28:23.751Z,1011.64
2023-04-26T11:29:23.691Z,1011.65
2023-04-26T11:30:23.724Z,1011.64
2023-04-26T11:31:23.792Z,1011.64
2023-04-26T11:32:23.679Z,1011.63
2023-04-26T11:33:23.643Z,1011.61
2023-04-26T11:34:23.668Z,1011.62
2023-04-26T11:35:23.653Z,1011.58
2023-04-26T11:36:23.640Z,1011.55
2023-04-26T11:37:23.630Z,1011.55
2023-04-26T11:38:23.622Z,1011.54
2023-04-26T11:39:23.588Z,1011.55
2023-04-26T11:40:23.610Z,1011.59
2023-04-26T11:41:23.560Z,1011.60
2023-04-26T11:42:23.572Z,1011.58
2023-04-26T11:43:23.577Z,1011.58
2023-04-26T11:44:23.616Z,1011.52
2023-04-26T11:45:23.524Z,1011.51
2023-04-26T11:46:23.589Z,1011.43
2023-04-26T11:47:23.508Z,1011.40
2023-04-26T11:48:23.529Z,1011.43
2023-04-26T11:49:23.492Z,1011.48
2023-04-26T11:50:23.498Z,1011.45
2023-04-26T11:51:23.460Z,1011.45
2023-04-26T11:52:23.486Z,1011.34
2023-04-26T11:53:23.450Z,1011.28
2023-04-26T11:54:23.457Z,1011.22
2023-04-26T11:55:23.449Z,1011.21
2023-04-26T11:56:23.446Z,1011.21
2023-04-26T11:57:23.394Z,1011.19
2023-04-26T11:58:23.403Z,1011.26
2023-04-26T11:59:23.395Z,1011.33
2023-04-26T12:00:23.411Z,1011.38
2023-04-26T12:01:23.788Z,1011.41
2023-04-26T12:02:23.496Z,1011.46
2023-04-26T12:03:23.569Z,1011.46
2023-04-26T12:04:23.443Z,1011.48
2023-04-26T12:05:23.342Z,1011.49